weather.gov     
National Weather Service

Terminal Aerodrome Forecast
NWS Homepage
This page is being discontinued on March 12, 2014.
The same data is available at this site. Please update your bookmarks.
Thank you, and we apologize for the inconvenience.
Please send an email to SR-SRH.Webmaster@noaa.gov with any concerns.


Current Version
Previous Version:    01  02  03  04  05  06  07  08  09  10  11  12  13  14  15  16  17  18  19  20  21  22  23  24  25  26  27  28  29  30  
   31  32  33  34  
[Printable]
272
FTUS44 KCRP 242100 AAA
TAFCRP
TAF AMD
KCRP 242118Z 2421/2518 13013KT P6SM BKN035
      TEMPO 2421/2424 OVC030
     FM250200 13012KT P6SM BKN015
     FM250700 VRB04KT 5SM BR OVC007
      TEMPO 2511/2515 1SM BR OVC004
     FM251600 09010KT P6SM SCT020 BKN035=


U.S. Dept. of Commerce
NOAA National Weather Service
1325 East West Highway
Silver Spring, MD 20910
E-mail: w-nws.webmaster@noaa.gov
Page last modified: May 16, 2007
NATIONAL WEATHER SERVICE: for Safety, for Work, for Fun - FOR LIFE